sensor_id;sensor_type;location;lat;lon;timestamp;P1;durP1;ratioP1;P2;durP2;ratioP2
9372;SDS011;10838;52.350;9.790;2022-09-09T00:00:46;3.03;;;2.60;;
9372;SDS011;10838;52.350;9.790;2022-09-09T00:03:16;2.57;;;2.33;;
9372;SDS011;10838;52.350;9.790;2022-09-09T00:05:48;2.67;;;2.43;;
9372;SDS011;10838;52.350;9.790;2022-09-09T00:08:21;2.87;;;2.40;;
9372;SDS011;10838;52.350;9.790;2022-09-09T00:10:56;2.50;;;2.07;;
9372;SDS011;10838;52.350;9.790;2022-09-09T00:13:28;2.23;;;2.13;;
9372;SDS011;10838;52.350;9.790;2022-09-09T00:16:02;2.23;;;2.13;;
9372;SDS011;10838;52.350;9.790;2022-09-09T00:18:36;5.50;;;2.27;;
9372;SDS011;10838;52.350;9.790;2022-09-09T00:21:17;2.10;;;2.00;;
9372;SDS011;10838;52.350;9.790;2022-09-09T00:23:45;3.07;;;2.30;;
9372;SDS011;10838;52.350;9.790;2022-09-09T00:26:17;2.10;;;1.90;;
9372;SDS011;10838;52.350;9.790;2022-09-09T00:28:48;4.17;;;2.30;;
9372;SDS011;10838;52.350;9.790;2022-09-09T00:31:23;2.00;;;1.80;;
9372;SDS011;10838;52.350;9.790;2022-09-09T00:33:53;2.07;;;1.90;;
9372;SDS011;10838;52.350;9.790;2022-09-09T00:36:26;5.07;;;2.00;;
9372;SDS011;10838;52.350;9.790;2022-09-09T00:38:55;3.10;;;1.90;;
9372;SDS011;10838;52.350;9.790;2022-09-09T00:41:26;1.90;;;1.80;;
9372;SDS011;10838;52.350;9.790;2022-09-09T00:44:12;4.47;;;2.20;;
9372;SDS011;10838;52.350;9.790;2022-09-09T00:46:50;1.80;;;1.70;;
9372;SDS011;10838;52.350;9.790;2022-09-09T00:49:37;1.60;;;1.37;;
9372;SDS011;10838;52.350;9.790;2022-09-09T00:52:20;2.80;;;1.57;;
9372;SDS011;10838;52.350;9.790;2022-09-09T00:54:54;2.33;;;1.67;;
9372;SDS011;10838;52.350;9.790;2022-09-09T00:57:27;2.57;;;1.53;;
9372;SDS011;10838;52.350;9.790;2022-09-09T00:59:57;1.93;;;1.50;;
9372;SDS011;10838;52.350;9.790;2022-09-09T01:02:31;1.53;;;1.40;;
9372;SDS011;10838;52.350;9.790;2022-09-09T01:05:07;1.80;;;1.60;;
9372;SDS011;10838;52.350;9.790;2022-09-09T01:07:41;1.50;;;1.40;;
9372;SDS011;10838;52.350;9.790;2022-09-09T01:10:15;2.50;;;1.43;;
9372;SDS011;10838;52.350;9.790;2022-09-09T01:12:52;3.33;;;1.20;;
9372;SDS011;10838;52.350;9.790;2022-09-09T01:15:22;2.80;;;1.20;;
9372;SDS011;10838;52.350;9.790;2022-09-09T01:17:53;1.90;;;1.20;;
9372;SDS011;10838;52.350;9.790;2022-09-09T01:20:27;3.53;;;1.10;;
9372;SDS011;10838;52.350;9.790;2022-09-09T01:23:08;2.93;;;1.00;;
9372;SDS011;10838;52.350;9.790;2022-09-09T01:26:02;2.37;;;0.97;;
9372;SDS011;10838;52.350;9.790;2022-09-09T01:28:43;4.37;;;1.20;;
9372;SDS011;10838;52.350;9.790;2022-09-09T01:31:14;1.20;;;1.07;;
9372;SDS011;10838;52.350;9.790;2022-09-09T01:33:43;1.67;;;0.93;;
9372;SDS011;10838;52.350;9.790;2022-09-09T01:36:11;3.50;;;1.17;;
9372;SDS011;10838;52.350;9.790;2022-09-09T01:38:41;2.33;;;1.00;;
9372;SDS011;10838;52.350;9.790;2022-09-09T01:41:09;2.83;;;1.10;;
9372;SDS011;10838;52.350;9.790;2022-09-09T01:43:36;2.23;;;1.20;;
9372;SDS011;10838;52.350;9.790;2022-09-09T01:46:03;2.37;;;0.97;;
9372;SDS011;10838;52.350;9.790;2022-09-09T01:48:30;1.97;;;1.10;;
9372;SDS011;10838;52.350;9.790;2022-09-09T01:50:57;1.20;;;1.10;;
9372;SDS011;10838;52.350;9.790;2022-09-09T01:53:24;1.17;;;0.93;;
9372;SDS011;10838;52.350;9.790;2022-09-09T01:55:54;5.13;;;1.20;;
9372;SDS011;10838;52.350;9.790;2022-09-09T01:58:34;2.50;;;1.00;;
9372;SDS011;10838;52.350;9.790;2022-09-09T02:01:11;1.90;;;1.00;;
9372;SDS011;10838;52.350;9.790;2022-09-09T02:03:44;3.53;;;1.23;;
9372;SDS011;10838;52.350;9.790;2022-09-09T02:06:20;1.00;;;1.00;;
9372;SDS011;10838;52.350;9.790;2022-09-09T02:08:54;2.83;;;1.00;;
9372;SDS011;10838;52.350;9.790;2022-09-09T02:11:25;4.20;;;1.20;;
9372;SDS011;10838;52.350;9.790;2022-09-09T02:13:55;1.00;;;1.00;;
9372;SDS011;10838;52.350;9.790;2022-09-09T02:16:26;1.63;;;1.23;;
9372;SDS011;10838;52.350;9.790;2022-09-09T02:19:01;1.30;;;1.20;;
9372;SDS011;10838;52.350;9.790;2022-09-09T02:21:32;1.60;;;1.13;;
9372;SDS011;10838;52.350;9.790;2022-09-09T02:24:02;2.00;;;1.20;;
9372;SDS011;10838;52.350;9.790;2022-09-09T02:26:33;2.40;;;1.30;;
9372;SDS011;10838;52.350;9.790;2022-09-09T02:29:08;3.57;;;1.57;;
9372;SDS011;10838;52.350;9.790;2022-09-09T02:31:38;2.60;;;1.10;;
9372;SDS011;10838;52.350;9.790;2022-09-09T02:34:07;1.90;;;1.20;;
9372;SDS011;10838;52.350;9.790;2022-09-09T02:36:37;7.90;;;1.40;;
9372;SDS011;10838;52.350;9.790;2022-09-09T02:39:06;2.33;;;1.30;;
9372;SDS011;10838;52.350;9.790;2022-09-09T02:41:36;1.87;;;1.50;;
9372;SDS011;10838;52.350;9.790;2022-09-09T02:44:05;3.70;;;1.50;;
9372;SDS011;10838;52.350;9.790;2022-09-09T02:46:37;5.93;;;1.40;;
9372;SDS011;10838;52.350;9.790;2022-09-09T02:49:20;3.33;;;1.33;;
9372;SDS011;10838;52.350;9.790;2022-09-09T02:51:56;1.33;;;1.20;;
9372;SDS011;10838;52.350;9.790;2022-09-09T02:54:28;1.70;;;1.20;;
9372;SDS011;10838;52.350;9.790;2022-09-09T02:56:58;2.20;;;1.20;;
9372;SDS011;10838;52.350;9.790;2022-09-09T02:59:30;1.43;;;1.23;;
9372;SDS011;10838;52.350;9.790;2022-09-09T03:01:58;2.03;;;1.23;;
9372;SDS011;10838;52.350;9.790;2022-09-09T03:04:26;2.57;;;1.53;;
9372;SDS011;10838;52.350;9.790;2022-09-09T03:06:52;2.43;;;1.50;;
9372;SDS011;10838;52.350;9.790;2022-09-09T03:09:19;1.83;;;1.23;;
9372;SDS011;10838;52.350;9.790;2022-09-09T03:11:46;1.83;;;1.30;;
9372;SDS011;10838;52.350;9.790;2022-09-09T03:14:14;3.00;;;1.60;;
9372;SDS011;10838;52.350;9.790;2022-09-09T03:16:42;3.33;;;1.40;;
9372;SDS011;10838;52.350;9.790;2022-09-09T03:19:09;1.50;;;1.37;;
9372;SDS011;10838;52.350;9.790;2022-09-09T03:21:36;2.10;;;1.10;;
9372;SDS011;10838;52.350;9.790;2022-09-09T03:24:03;5.37;;;1.77;;
9372;SDS011;10838;52.350;9.790;2022-09-09T03:26:31;1.97;;;1.30;;
9372;SDS011;10838;52.350;9.790;2022-09-09T03:28:58;2.37;;;1.70;;
9372;SDS011;10838;52.350;9.790;2022-09-09T03:31:26;1.83;;;1.33;;
9372;SDS011;10838;52.350;9.790;2022-09-09T03:33:56;2.70;;;1.70;;
9372;SDS011;10838;52.350;9.790;2022-09-09T03:36:23;1.50;;;1.40;;
9372;SDS011;10838;52.350;9.790;2022-09-09T03:38:51;2.00;;;1.20;;
9372;SDS011;10838;52.350;9.790;2022-09-09T03:41:19;2.43;;;1.40;;
9372;SDS011;10838;52.350;9.790;2022-09-09T03:43:45;2.63;;;1.53;;
9372;SDS011;10838;52.350;9.790;2022-09-09T03:46:12;1.37;;;1.27;;
9372;SDS011;10838;52.350;9.790;2022-09-09T03:48:39;2.47;;;1.67;;
9372;SDS011;10838;52.350;9.790;2022-09-09T03:51:06;2.67;;;1.30;;
9372;SDS011;10838;52.350;9.790;2022-09-09T03:53:33;3.80;;;1.67;;
9372;SDS011;10838;52.350;9.790;2022-09-09T03:56:00;4.13;;;1.50;;
9372;SDS011;10838;52.350;9.790;2022-09-09T03:58:28;2.60;;;1.50;;
9372;SDS011;10838;52.350;9.790;2022-09-09T04:00:55;1.63;;;1.40;;
9372;SDS011;10838;52.350;9.790;2022-09-09T04:03:22;2.70;;;1.67;;
9372;SDS011;10838;52.350;9.790;2022-09-09T04:05:50;2.87;;;1.60;;
9372;SDS011;10838;52.350;9.790;2022-09-09T04:08:18;3.07;;;1.30;;
9372;SDS011;10838;52.350;9.790;2022-09-09T04:10:45;7.17;;;2.13;;
9372;SDS011;10838;52.350;9.790;2022-09-09T04:13:12;4.87;;;1.80;;
9372;SDS011;10838;52.350;9.790;2022-09-09T04:15:40;3.00;;;1.60;;
9372;SDS011;10838;52.350;9.790;2022-09-09T04:18:07;7.87;;;1.93;;
9372;SDS011;10838;52.350;9.790;2022-09-09T04:20:33;2.27;;;1.73;;
9372;SDS011;10838;52.350;9.790;2022-09-09T04:23:00;4.13;;;1.60;;
9372;SDS011;10838;52.350;9.790;2022-09-09T04:25:28;5.27;;;1.90;;
9372;SDS011;10838;52.350;9.790;2022-09-09T04:27:55;3.37;;;1.77;;
9372;SDS011;10838;52.350;9.790;2022-09-09T04:30:22;1.60;;;1.50;;
9372;SDS011;10838;52.350;9.790;2022-09-09T04:32:50;2.87;;;1.60;;
9372;SDS011;10838;52.350;9.790;2022-09-09T04:35:16;4.07;;;2.10;;
9372;SDS011;10838;52.350;9.790;2022-09-09T04:37:43;5.17;;;2.20;;
9372;SDS011;10838;52.350;9.790;2022-09-09T04:40:10;2.40;;;1.57;;
9372;SDS011;10838;52.350;9.790;2022-09-09T04:42:38;5.23;;;1.43;;
9372;SDS011;10838;52.350;9.790;2022-09-09T04:45:09;6.30;;;2.00;;
9372;SDS011;10838;52.350;9.790;2022-09-09T04:47:36;5.20;;;1.67;;
9372;SDS011;10838;52.350;9.790;2022-09-09T04:50:03;2.77;;;1.60;;
9372;SDS011;10838;52.350;9.790;2022-09-09T04:52:30;6.23;;;1.80;;
9372;SDS011;10838;52.350;9.790;2022-09-09T04:54:56;2.97;;;1.60;;
9372;SDS011;10838;52.350;9.790;2022-09-09T04:57:23;6.07;;;1.60;;
9372;SDS011;10838;52.350;9.790;2022-09-09T04:59:51;4.37;;;1.80;;
9372;SDS011;10838;52.350;9.790;2022-09-09T05:02:18;2.83;;;1.50;;
9372;SDS011;10838;52.350;9.790;2022-09-09T05:04:44;2.73;;;1.70;;
9372;SDS011;10838;52.350;9.790;2022-09-09T05:07:11;5.03;;;1.77;;
9372;SDS011;10838;52.350;9.790;2022-09-09T05:09:39;3.57;;;1.50;;
9372;SDS011;10838;52.350;9.790;2022-09-09T05:12:06;3.37;;;1.60;;
9372;SDS011;10838;52.350;9.790;2022-09-09T05:14:33;10.30;;;1.97;;
9372;SDS011;10838;52.350;9.790;2022-09-09T05:17:02;2.87;;;1.57;;
9372;SDS011;10838;52.350;9.790;2022-09-09T05:19:29;4.57;;;1.87;;
9372;SDS011;10838;52.350;9.790;2022-09-09T05:21:56;2.00;;;1.53;;
9372;SDS011;10838;52.350;9.790;2022-09-09T05:24:22;2.80;;;1.87;;
9372;SDS011;10838;52.350;9.790;2022-09-09T05:26:49;7.93;;;2.23;;
9372;SDS011;10838;52.350;9.790;2022-09-09T05:29:16;2.47;;;1.90;;
9372;SDS011;10838;52.350;9.790;2022-09-09T05:31:44;3.57;;;1.87;;
9372;SDS011;10838;52.350;9.790;2022-09-09T05:34:13;3.00;;;1.60;;
9372;SDS011;10838;52.350;9.790;2022-09-09T05:36:39;6.77;;;1.80;;
9372;SDS011;10838;52.350;9.790;2022-09-09T05:39:06;6.20;;;1.80;;
9372;SDS011;10838;52.350;9.790;2022-09-09T05:41:33;6.03;;;2.00;;
9372;SDS011;10838;52.350;9.790;2022-09-09T05:44:01;2.10;;;1.37;;
9372;SDS011;10838;52.350;9.790;2022-09-09T05:46:28;2.47;;;1.60;;
9372;SDS011;10838;52.350;9.790;2022-09-09T05:48:55;2.27;;;1.70;;
9372;SDS011;10838;52.350;9.790;2022-09-09T05:51:25;2.03;;;1.80;;
9372;SDS011;10838;52.350;9.790;2022-09-09T05:53:54;4.80;;;1.80;;
9372;SDS011;10838;52.350;9.790;2022-09-09T05:56:23;4.00;;;2.07;;
9372;SDS011;10838;52.350;9.790;2022-09-09T05:58:52;4.13;;;1.90;;
9372;SDS011;10838;52.350;9.790;2022-09-09T06:01:20;1.80;;;1.70;;
9372;SDS011;10838;52.350;9.790;2022-09-09T06:03:48;2.37;;;1.63;;
9372;SDS011;10838;52.350;9.790;2022-09-09T06:06:16;8.87;;;1.97;;
9372;SDS011;10838;52.350;9.790;2022-09-09T06:08:46;3.20;;;1.70;;
9372;SDS011;10838;52.350;9.790;2022-09-09T06:11:14;6.97;;;2.20;;
9372;SDS011;10838;52.350;9.790;2022-09-09T06:13:42;5.70;;;2.10;;
9372;SDS011;10838;52.350;9.790;2022-09-09T06:16:12;6.07;;;1.70;;
9372;SDS011;10838;52.350;9.790;2022-09-09T06:18:40;5.07;;;2.00;;
9372;SDS011;10838;52.350;9.790;2022-09-09T06:21:09;7.03;;;2.10;;
9372;SDS011;10838;52.350;9.790;2022-09-09T06:23:40;5.07;;;1.83;;
9372;SDS011;10838;52.350;9.790;2022-09-09T06:26:09;2.53;;;2.03;;
9372;SDS011;10838;52.350;9.790;2022-09-09T06:28:37;9.00;;;2.97;;
9372;SDS011;10838;52.350;9.790;2022-09-09T06:31:05;5.60;;;1.70;;
9372;SDS011;10838;52.350;9.790;2022-09-09T06:33:33;4.57;;;2.10;;
9372;SDS011;10838;52.350;9.790;2022-09-09T06:36:04;4.67;;;1.77;;
9372;SDS011;10838;52.350;9.790;2022-09-09T06:38:31;6.07;;;2.13;;
9372;SDS011;10838;52.350;9.790;2022-09-09T06:40:58;8.53;;;2.10;;
9372;SDS011;10838;52.350;9.790;2022-09-09T06:43:28;4.23;;;1.80;;
9372;SDS011;10838;52.350;9.790;2022-09-09T06:45:55;4.80;;;1.93;;
9372;SDS011;10838;52.350;9.790;2022-09-09T06:48:22;3.90;;;1.80;;
9372;SDS011;10838;52.350;9.790;2022-09-09T06:50:50;7.07;;;2.50;;
9372;SDS011;10838;52.350;9.790;2022-09-09T06:53:17;2.37;;;2.00;;
9372;SDS011;10838;52.350;9.790;2022-09-09T06:55:45;3.87;;;1.97;;
9372;SDS011;10838;52.350;9.790;2022-09-09T06:58:11;6.03;;;2.20;;
9372;SDS011;10838;52.350;9.790;2022-09-09T07:00:39;6.60;;;2.13;;
9372;SDS011;10838;52.350;9.790;2022-09-09T07:03:07;3.33;;;2.03;;
9372;SDS011;10838;52.350;9.790;2022-09-09T07:05:33;3.30;;;2.03;;
9372;SDS011;10838;52.350;9.790;2022-09-09T07:08:00;4.80;;;1.87;;
9372;SDS011;10838;52.350;9.790;2022-09-09T07:10:27;4.17;;;2.10;;
9372;SDS011;10838;52.350;9.790;2022-09-09T07:12:53;3.40;;;1.60;;
9372;SDS011;10838;52.350;9.790;2022-09-09T07:15:20;5.70;;;1.93;;
9372;SDS011;10838;52.350;9.790;2022-09-09T07:17:49;4.13;;;1.93;;
9372;SDS011;10838;52.350;9.790;2022-09-09T07:20:15;3.37;;;1.80;;
9372;SDS011;10838;52.350;9.790;2022-09-09T07:22:42;4.23;;;1.60;;
9372;SDS011;10838;52.350;9.790;2022-09-09T07:25:08;1.80;;;1.50;;
9372;SDS011;10838;52.350;9.790;2022-09-09T07:27:35;4.67;;;2.00;;
9372;SDS011;10838;52.350;9.790;2022-09-09T07:30:02;4.80;;;2.20;;
9372;SDS011;10838;52.350;9.790;2022-09-09T07:32:29;3.53;;;1.70;;
9372;SDS011;10838;52.350;9.790;2022-09-09T07:34:57;4.63;;;1.70;;
9372;SDS011;10838;52.350;9.790;2022-09-09T07:37:24;2.53;;;1.70;;
9372;SDS011;10838;52.350;9.790;2022-09-09T07:39:51;4.30;;;1.93;;
9372;SDS011;10838;52.350;9.790;2022-09-09T07:42:18;2.70;;;1.57;;
9372;SDS011;10838;52.350;9.790;2022-09-09T07:44:44;3.77;;;1.60;;
9372;SDS011;10838;52.350;9.790;2022-09-09T07:47:11;4.30;;;1.57;;
9372;SDS011;10838;52.350;9.790;2022-09-09T07:49:37;2.73;;;1.53;;
9372;SDS011;10838;52.350;9.790;2022-09-09T07:52:05;5.40;;;2.00;;
9372;SDS011;10838;52.350;9.790;2022-09-09T07:54:32;2.17;;;1.47;;
9372;SDS011;10838;52.350;9.790;2022-09-09T07:56:58;4.73;;;1.43;;
9372;SDS011;10838;52.350;9.790;2022-09-09T07:59:25;1.63;;;1.40;;
9372;SDS011;10838;52.350;9.790;2022-09-09T08:01:52;5.23;;;1.60;;
9372;SDS011;10838;52.350;9.790;2022-09-09T08:04:19;5.23;;;1.87;;
9372;SDS011;10838;52.350;9.790;2022-09-09T08:06:48;4.13;;;1.50;;
9372;SDS011;10838;52.350;9.790;2022-09-09T08:09:19;4.70;;;1.90;;
9372;SDS011;10838;52.350;9.790;2022-09-09T08:11:46;5.57;;;2.10;;
9372;SDS011;10838;52.350;9.790;2022-09-09T08:14:13;9.13;;;1.87;;
9372;SDS011;10838;52.350;9.790;2022-09-09T08:16:41;4.00;;;2.10;;
9372;SDS011;10838;52.350;9.790;2022-09-09T08:19:09;2.80;;;1.60;;
9372;SDS011;10838;52.350;9.790;2022-09-09T08:21:36;2.30;;;1.40;;
9372;SDS011;10838;52.350;9.790;2022-09-09T08:24:05;3.67;;;1.50;;
9372;SDS011;10838;52.350;9.790;2022-09-09T08:26:34;3.17;;;1.50;;
9372;SDS011;10838;52.350;9.790;2022-09-09T08:29:02;2.90;;;1.53;;
9372;SDS011;10838;52.350;9.790;2022-09-09T08:31:32;3.90;;;1.70;;
9372;SDS011;10838;52.350;9.790;2022-09-09T08:34:00;3.90;;;1.70;;
9372;SDS011;10838;52.350;9.790;2022-09-09T08:36:28;3.57;;;1.80;;
9372;SDS011;10838;52.350;9.790;2022-09-09T08:38:58;2.23;;;1.30;;
9372;SDS011;10838;52.350;9.790;2022-09-09T08:41:38;2.40;;;1.40;;
9372;SDS011;10838;52.350;9.790;2022-09-09T08:44:13;4.93;;;1.50;;
9372;SDS011;10838;52.350;9.790;2022-09-09T08:46:49;2.97;;;1.47;;
9372;SDS011;10838;52.350;9.790;2022-09-09T08:49:36;3.00;;;1.40;;
9372;SDS011;10838;52.350;9.790;2022-09-09T08:52:16;3.77;;;1.67;;
9372;SDS011;10838;52.350;9.790;2022-09-09T08:54:45;5.87;;;1.63;;
9372;SDS011;10838;52.350;9.790;2022-09-09T08:57:16;3.30;;;1.47;;
9372;SDS011;10838;52.350;9.790;2022-09-09T08:59:47;4.47;;;1.47;;
9372;SDS011;10838;52.350;9.790;2022-09-09T09:02:17;4.07;;;1.60;;
9372;SDS011;10838;52.350;9.790;2022-09-09T09:04:56;5.40;;;1.40;;
9372;SDS011;10838;52.350;9.790;2022-09-09T09:07:33;7.67;;;1.80;;
9372;SDS011;10838;52.350;9.790;2022-09-09T09:10:15;3.80;;;1.50;;
9372;SDS011;10838;52.350;9.790;2022-09-09T09:12:52;4.93;;;1.53;;
9372;SDS011;10838;52.350;9.790;2022-09-09T09:15:21;2.80;;;1.33;;
9372;SDS011;10838;52.350;9.790;2022-09-09T09:17:51;2.37;;;1.30;;
9372;SDS011;10838;52.350;9.790;2022-09-09T09:20:18;5.97;;;1.80;;
9372;SDS011;10838;52.350;9.790;2022-09-09T09:22:48;3.43;;;1.63;;
9372;SDS011;10838;52.350;9.790;2022-09-09T09:25:17;9.80;;;1.77;;
9372;SDS011;10838;52.350;9.790;2022-09-09T09:27:47;3.90;;;1.53;;
9372;SDS011;10838;52.350;9.790;2022-09-09T09:30:21;4.73;;;1.37;;
9372;SDS011;10838;52.350;9.790;2022-09-09T09:32:50;7.20;;;1.50;;
9372;SDS011;10838;52.350;9.790;2022-09-09T09:35:20;4.23;;;1.47;;
9372;SDS011;10838;52.350;9.790;2022-09-09T09:37:46;3.37;;;1.33;;
9372;SDS011;10838;52.350;9.790;2022-09-09T09:40:15;2.93;;;1.50;;
9372;SDS011;10838;52.350;9.790;2022-09-09T09:42:51;3.63;;;1.40;;
9372;SDS011;10838;52.350;9.790;2022-09-09T09:45:25;2.27;;;1.37;;
9372;SDS011;10838;52.350;9.790;2022-09-09T09:47:59;4.77;;;1.23;;
9372;SDS011;10838;52.350;9.790;2022-09-09T09:50:28;3.47;;;1.30;;
9372;SDS011;10838;52.350;9.790;2022-09-09T09:52:56;5.20;;;1.30;;
9372;SDS011;10838;52.350;9.790;2022-09-09T09:55:25;2.70;;;1.30;;
9372;SDS011;10838;52.350;9.790;2022-09-09T09:57:52;2.57;;;1.50;;
9372;SDS011;10838;52.350;9.790;2022-09-09T10:00:19;6.00;;;1.40;;
9372;SDS011;10838;52.350;9.790;2022-09-09T10:02:49;3.87;;;1.57;;
9372;SDS011;10838;52.350;9.790;2022-09-09T10:05:18;3.20;;;1.23;;
9372;SDS011;10838;52.350;9.790;2022-09-09T10:07:46;4.57;;;1.40;;
9372;SDS011;10838;52.350;9.790;2022-09-09T10:10:15;4.43;;;1.60;;
9372;SDS011;10838;52.350;9.790;2022-09-09T10:12:48;7.00;;;1.40;;
9372;SDS011;10838;52.350;9.790;2022-09-09T10:15:30;3.80;;;1.60;;
9372;SDS011;10838;52.350;9.790;2022-09-09T10:18:08;6.23;;;1.80;;
9372;SDS011;10838;52.350;9.790;2022-09-09T10:20:49;5.10;;;1.57;;
9372;SDS011;10838;52.350;9.790;2022-09-09T10:23:24;6.30;;;1.90;;
9372;SDS011;10838;52.350;9.790;2022-09-09T10:26:04;3.77;;;1.40;;
9372;SDS011;10838;52.350;9.790;2022-09-09T10:28:47;3.70;;;1.37;;
9372;SDS011;10838;52.350;9.790;2022-09-09T10:31:31;4.40;;;1.80;;
9372;SDS011;10838;52.350;9.790;2022-09-09T10:34:06;4.10;;;1.60;;
9372;SDS011;10838;52.350;9.790;2022-09-09T10:36:43;7.87;;;1.67;;
9372;SDS011;10838;52.350;9.790;2022-09-09T10:39:15;4.73;;;1.70;;
9372;SDS011;10838;52.350;9.790;2022-09-09T10:41:59;11.00;;;2.33;;
9372;SDS011;10838;52.350;9.790;2022-09-09T10:44:34;3.07;;;1.70;;
9372;SDS011;10838;52.350;9.790;2022-09-09T10:47:17;7.27;;;1.53;;
9372;SDS011;10838;52.350;9.790;2022-09-09T10:50:08;4.50;;;1.33;;
9372;SDS011;10838;52.350;9.790;2022-09-09T10:52:45;7.60;;;1.50;;
9372;SDS011;10838;52.350;9.790;2022-09-09T10:55:23;3.93;;;1.73;;
9372;SDS011;10838;52.350;9.790;2022-09-09T10:57:53;9.90;;;1.60;;
9372;SDS011;10838;52.350;9.790;2022-09-09T11:00:24;5.03;;;1.90;;
9372;SDS011;10838;52.350;9.790;2022-09-09T11:03:00;3.67;;;1.60;;
9372;SDS011;10838;52.350;9.790;2022-09-09T11:05:28;8.33;;;1.53;;
9372;SDS011;10838;52.350;9.790;2022-09-09T11:08:01;4.83;;;1.70;;
9372;SDS011;10838;52.350;9.790;2022-09-09T11:10:34;5.27;;;1.63;;
9372;SDS011;10838;52.350;9.790;2022-09-09T11:13:08;5.50;;;1.60;;
9372;SDS011;10838;52.350;9.790;2022-09-09T11:15:42;4.23;;;1.33;;
9372;SDS011;10838;52.350;9.790;2022-09-09T11:18:16;3.20;;;1.20;;
9372;SDS011;10838;52.350;9.790;2022-09-09T11:20:46;3.30;;;1.40;;
9372;SDS011;10838;52.350;9.790;2022-09-09T11:23:17;3.63;;;1.20;;
9372;SDS011;10838;52.350;9.790;2022-09-09T11:25:48;1.90;;;1.23;;
9372;SDS011;10838;52.350;9.790;2022-09-09T11:28:28;1.43;;;1.10;;
9372;SDS011;10838;52.350;9.790;2022-09-09T11:34:09;19.73;;;2.60;;
9372;SDS011;10838;52.350;9.790;2022-09-09T11:36:49;12.50;;;3.03;;
9372;SDS011;10838;52.350;9.790;2022-09-09T11:39:41;5.67;;;2.10;;
9372;SDS011;10838;52.350;9.790;2022-09-09T11:42:25;7.27;;;2.20;;
9372;SDS011;10838;52.350;9.790;2022-09-09T11:44:52;5.10;;;1.57;;
9372;SDS011;10838;52.350;9.790;2022-09-09T11:47:21;16.30;;;2.00;;
9372;SDS011;10838;52.350;9.790;2022-09-09T11:49:55;3.50;;;1.50;;
9372;SDS011;10838;52.350;9.790;2022-09-09T11:52:35;3.23;;;1.47;;
9372;SDS011;10838;52.350;9.790;2022-09-09T11:55:08;4.30;;;1.40;;
9372;SDS011;10838;52.350;9.790;2022-09-09T11:57:37;11.03;;;1.60;;
9372;SDS011;10838;52.350;9.790;2022-09-09T12:00:05;5.20;;;1.40;;
9372;SDS011;10838;52.350;9.790;2022-09-09T12:02:33;6.83;;;1.87;;
9372;SDS011;10838;52.350;9.790;2022-09-09T12:05:04;2.97;;;1.43;;
9372;SDS011;10838;52.350;9.790;2022-09-09T12:07:33;8.27;;;1.70;;
9372;SDS011;10838;52.350;9.790;2022-09-09T12:10:05;13.40;;;2.17;;
9372;SDS011;10838;52.350;9.790;2022-09-09T12:12:46;10.47;;;2.17;;
9372;SDS011;10838;52.350;9.790;2022-09-09T12:15:20;8.17;;;1.70;;
9372;SDS011;10838;52.350;9.790;2022-09-09T12:17:53;4.53;;;1.83;;
9372;SDS011;10838;52.350;9.790;2022-09-09T12:20:23;6.73;;;2.03;;
9372;SDS011;10838;52.350;9.790;2022-09-09T12:23:10;4.37;;;2.10;;
9372;SDS011;10838;52.350;9.790;2022-09-09T12:25:51;7.03;;;1.90;;
9372;SDS011;10838;52.350;9.790;2022-09-09T12:28:39;12.60;;;2.17;;
9372;SDS011;10838;52.350;9.790;2022-09-09T12:31:12;5.90;;;1.70;;
9372;SDS011;10838;52.350;9.790;2022-09-09T12:33:44;3.20;;;1.50;;
9372;SDS011;10838;52.350;9.790;2022-09-09T12:36:15;6.90;;;1.50;;
9372;SDS011;10838;52.350;9.790;2022-09-09T12:38:45;4.70;;;1.60;;
9372;SDS011;10838;52.350;9.790;2022-09-09T12:41:19;4.63;;;1.47;;
9372;SDS011;10838;52.350;9.790;2022-09-09T12:43:47;3.33;;;1.30;;
9372;SDS011;10838;52.350;9.790;2022-09-09T12:46:16;5.60;;;1.50;;
9372;SDS011;10838;52.350;9.790;2022-09-09T12:48:51;3.70;;;1.63;;
9372;SDS011;10838;52.350;9.790;2022-09-09T12:51:21;2.47;;;1.10;;
9372;SDS011;10838;52.350;9.790;2022-09-09T12:53:52;10.10;;;1.60;;
9372;SDS011;10838;52.350;9.790;2022-09-09T12:56:20;5.27;;;1.60;;
9372;SDS011;10838;52.350;9.790;2022-09-09T12:58:49;2.83;;;1.40;;
9372;SDS011;10838;52.350;9.790;2022-09-09T13:01:18;3.03;;;1.33;;
9372;SDS011;10838;52.350;9.790;2022-09-09T13:03:47;2.07;;;1.33;;
9372;SDS011;10838;52.350;9.790;2022-09-09T13:06:18;5.50;;;1.57;;
9372;SDS011;10838;52.350;9.790;2022-09-09T13:08:48;1.87;;;1.30;;
9372;SDS011;10838;52.350;9.790;2022-09-09T13:11:16;1.60;;;1.40;;
9372;SDS011;10838;52.350;9.790;2022-09-09T13:13:50;2.17;;;1.30;;
9372;SDS011;10838;52.350;9.790;2022-09-09T13:16:19;4.10;;;1.73;;
9372;SDS011;10838;52.350;9.790;2022-09-09T13:18:48;6.77;;;1.47;;
9372;SDS011;10838;52.350;9.790;2022-09-09T13:21:15;1.73;;;1.40;;
9372;SDS011;10838;52.350;9.790;2022-09-09T13:23:48;5.27;;;2.40;;
9372;SDS011;10838;52.350;9.790;2022-09-09T13:26:22;7.23;;;2.00;;
9372;SDS011;10838;52.350;9.790;2022-09-09T13:28:50;2.67;;;1.20;;
9372;SDS011;10838;52.350;9.790;2022-09-09T13:31:21;2.27;;;1.03;;
9372;SDS011;10838;52.350;9.790;2022-09-09T13:33:49;2.90;;;1.20;;
9372;SDS011;10838;52.350;9.790;2022-09-09T13:36:18;4.10;;;1.30;;
9372;SDS011;10838;52.350;9.790;2022-09-09T13:38:56;2.93;;;1.20;;
9372;SDS011;10838;52.350;9.790;2022-09-09T13:41:25;3.83;;;1.30;;
9372;SDS011;10838;52.350;9.790;2022-09-09T13:43:56;2.37;;;1.40;;
9372;SDS011;10838;52.350;9.790;2022-09-09T13:46:28;1.63;;;1.20;;
9372;SDS011;10838;52.350;9.790;2022-09-09T13:48:58;2.93;;;1.30;;
9372;SDS011;10838;52.350;9.790;2022-09-09T13:51:29;1.83;;;1.30;;
9372;SDS011;10838;52.350;9.790;2022-09-09T13:54:01;1.63;;;1.20;;
9372;SDS011;10838;52.350;9.790;2022-09-09T13:56:28;3.00;;;1.17;;
9372;SDS011;10838;52.350;9.790;2022-09-09T13:58:54;1.87;;;1.20;;
9372;SDS011;10838;52.350;9.790;2022-09-09T14:01:22;3.00;;;1.60;;
9372;SDS011;10838;52.350;9.790;2022-09-09T14:03:49;2.37;;;1.27;;
9372;SDS011;10838;52.350;9.790;2022-09-09T14:06:15;2.30;;;1.10;;
9372;SDS011;10838;52.350;9.790;2022-09-09T14:08:43;2.30;;;1.63;;
9372;SDS011;10838;52.350;9.790;2022-09-09T14:11:12;2.10;;;1.30;;
9372;SDS011;10838;52.350;9.790;2022-09-09T14:13:39;4.67;;;1.40;;
9372;SDS011;10838;52.350;9.790;2022-09-09T14:16:06;1.20;;;1.10;;
9372;SDS011;10838;52.350;9.790;2022-09-09T14:18:32;3.00;;;1.63;;
9372;SDS011;10838;52.350;9.790;2022-09-09T14:20:59;1.93;;;1.20;;
9372;SDS011;10838;52.350;9.790;2022-09-09T14:23:27;2.03;;;1.40;;
9372;SDS011;10838;52.350;9.790;2022-09-09T14:25:54;3.73;;;1.43;;
9372;SDS011;10838;52.350;9.790;2022-09-09T14:28:22;3.40;;;2.13;;
9372;SDS011;10838;52.350;9.790;2022-09-09T14:30:50;2.33;;;1.30;;
9372;SDS011;10838;52.350;9.790;2022-09-09T14:33:17;4.20;;;1.70;;
9372;SDS011;10838;52.350;9.790;2022-09-09T14:35:43;4.00;;;1.20;;
9372;SDS011;10838;52.350;9.790;2022-09-09T14:38:10;8.70;;;1.83;;
9372;SDS011;10838;52.350;9.790;2022-09-09T14:40:37;3.03;;;1.43;;
9372;SDS011;10838;52.350;9.790;2022-09-09T14:43:04;3.50;;;1.50;;
9372;SDS011;10838;52.350;9.790;2022-09-09T14:45:32;1.90;;;1.50;;
9372;SDS011;10838;52.350;9.790;2022-09-09T14:48:02;3.33;;;2.17;;
9372;SDS011;10838;52.350;9.790;2022-09-09T14:50:29;5.80;;;2.80;;
9372;SDS011;10838;52.350;9.790;2022-09-09T14:52:56;3.97;;;2.70;;
9372;SDS011;10838;52.350;9.790;2022-09-09T14:55:23;2.87;;;2.20;;
9372;SDS011;10838;52.350;9.790;2022-09-09T14:57:49;3.50;;;1.73;;
9372;SDS011;10838;52.350;9.790;2022-09-09T15:00:16;3.53;;;1.83;;
9372;SDS011;10838;52.350;9.790;2022-09-09T15:02:44;5.30;;;1.80;;
9372;SDS011;10838;52.350;9.790;2022-09-09T15:05:10;2.73;;;1.50;;
9372;SDS011;10838;52.350;9.790;2022-09-09T15:07:37;3.47;;;1.70;;
9372;SDS011;10838;52.350;9.790;2022-09-09T15:10:04;2.93;;;1.20;;
9372;SDS011;10838;52.350;9.790;2022-09-09T15:12:31;5.17;;;1.73;;
9372;SDS011;10838;52.350;9.790;2022-09-09T15:14:58;1.80;;;1.50;;
9372;SDS011;10838;52.350;9.790;2022-09-09T15:17:24;1.73;;;1.40;;
9372;SDS011;10838;52.350;9.790;2022-09-09T15:19:53;7.43;;;1.40;;
9372;SDS011;10838;52.350;9.790;2022-09-09T15:22:20;2.90;;;1.33;;